sensor_id;sensor_type;location;lat;lon;timestamp;P1;durP1;ratioP1;P2;durP2;ratioP2
76437;SDS011;65273;43.198;0.118;2023-04-24T00:00:07;4.72;;;2.20;;
76437;SDS011;65273;43.198;0.118;2023-04-24T00:02:34;2.10;;;1.83;;
76437;SDS011;65273;43.198;0.118;2023-04-24T00:05:02;2.90;;;2.05;;
76437;SDS011;65273;43.198;0.118;2023-04-24T00:07:29;3.67;;;2.00;;
76437;SDS011;65273;43.198;0.118;2023-04-24T00:09:55;6.10;;;1.90;;
76437;SDS011;65273;43.198;0.118;2023-04-24T00:12:20;2.97;;;1.67;;
76437;SDS011;65273;43.198;0.118;2023-04-24T00:14:46;6.18;;;1.80;;
76437;SDS011;65273;43.198;0.118;2023-04-24T00:17:11;4.25;;;1.90;;
76437;SDS011;65273;43.198;0.118;2023-04-24T00:19:37;2.65;;;1.60;;
76437;SDS011;65273;43.198;0.118;2023-04-24T00:22:02;5.28;;;2.00;;
76437;SDS011;65273;43.198;0.118;2023-04-24T00:24:28;4.35;;;1.40;;
76437;SDS011;65273;43.198;0.118;2023-04-24T00:26:54;3.00;;;1.50;;
76437;SDS011;65273;43.198;0.118;2023-04-24T00:29:19;1.92;;;1.73;;
76437;SDS011;65273;43.198;0.118;2023-04-24T00:31:44;1.98;;;1.45;;
76437;SDS011;65273;43.198;0.118;2023-04-24T00:34:10;4.70;;;1.60;;
76437;SDS011;65273;43.198;0.118;2023-04-24T00:36:36;2.80;;;1.50;;
76437;SDS011;65273;43.198;0.118;2023-04-24T00:39:02;2.95;;;1.40;;
76437;SDS011;65273;43.198;0.118;2023-04-24T00:41:28;3.78;;;1.40;;
76437;SDS011;65273;43.198;0.118;2023-04-24T00:43:53;1.88;;;1.40;;
76437;SDS011;65273;43.198;0.118;2023-04-24T00:46:18;1.85;;;1.35;;
76437;SDS011;65273;43.198;0.118;2023-04-24T00:48:44;3.20;;;1.35;;
76437;SDS011;65273;43.198;0.118;2023-04-24T00:51:10;4.90;;;1.60;;
76437;SDS011;65273;43.198;0.118;2023-04-24T00:53:35;3.03;;;1.80;;
76437;SDS011;65273;43.198;0.118;2023-04-24T00:56:01;5.63;;;2.25;;
76437;SDS011;65273;43.198;0.118;2023-04-24T00:58:27;5.43;;;2.00;;
76437;SDS011;65273;43.198;0.118;2023-04-24T01:00:53;2.85;;;1.98;;
76437;SDS011;65273;43.198;0.118;2023-04-24T01:03:21;3.72;;;1.88;;
76437;SDS011;65273;43.198;0.118;2023-04-24T01:05:48;4.10;;;1.80;;
76437;SDS011;65273;43.198;0.118;2023-04-24T01:08:14;5.07;;;2.30;;
76437;SDS011;65273;43.198;0.118;2023-04-24T01:10:41;4.57;;;1.95;;
76437;SDS011;65273;43.198;0.118;2023-04-24T01:13:09;3.22;;;1.80;;
76437;SDS011;65273;43.198;0.118;2023-04-24T01:15:34;5.07;;;1.92;;
76437;SDS011;65273;43.198;0.118;2023-04-24T01:18:00;3.80;;;2.30;;
76437;SDS011;65273;43.198;0.118;2023-04-24T01:20:25;3.22;;;2.10;;
76437;SDS011;65273;43.198;0.118;2023-04-24T01:22:51;4.95;;;1.92;;
76437;SDS011;65273;43.198;0.118;2023-04-24T01:25:18;3.10;;;1.90;;
76437;SDS011;65273;43.198;0.118;2023-04-24T01:27:43;2.92;;;2.00;;
76437;SDS011;65273;43.198;0.118;2023-04-24T01:30:09;5.93;;;2.22;;
76437;SDS011;65273;43.198;0.118;2023-04-24T01:32:35;4.63;;;1.90;;
76437;SDS011;65273;43.198;0.118;2023-04-24T01:35:01;7.10;;;2.25;;
76437;SDS011;65273;43.198;0.118;2023-04-24T01:37:27;3.88;;;1.80;;
76437;SDS011;65273;43.198;0.118;2023-04-24T01:39:53;4.63;;;2.30;;
76437;SDS011;65273;43.198;0.118;2023-04-24T01:42:18;4.10;;;1.88;;
76437;SDS011;65273;43.198;0.118;2023-04-24T01:44:44;3.40;;;1.80;;
76437;SDS011;65273;43.198;0.118;2023-04-24T01:47:10;6.55;;;1.95;;
76437;SDS011;65273;43.198;0.118;2023-04-24T01:49:37;5.28;;;1.85;;
76437;SDS011;65273;43.198;0.118;2023-04-24T01:52:03;5.60;;;2.30;;
76437;SDS011;65273;43.198;0.118;2023-04-24T01:54:29;7.68;;;2.00;;
76437;SDS011;65273;43.198;0.118;2023-04-24T01:56:55;2.03;;;1.75;;
76437;SDS011;65273;43.198;0.118;2023-04-24T01:59:20;2.40;;;1.73;;
76437;SDS011;65273;43.198;0.118;2023-04-24T02:01:46;4.25;;;1.88;;
76437;SDS011;65273;43.198;0.118;2023-04-24T02:04:12;2.90;;;1.90;;
76437;SDS011;65273;43.198;0.118;2023-04-24T02:06:38;4.45;;;1.90;;
76437;SDS011;65273;43.198;0.118;2023-04-24T02:09:04;5.20;;;1.63;;
76437;SDS011;65273;43.198;0.118;2023-04-24T02:11:30;4.63;;;1.55;;
76437;SDS011;65273;43.198;0.118;2023-04-24T02:13:55;4.40;;;1.58;;
76437;SDS011;65273;43.198;0.118;2023-04-24T02:16:20;4.47;;;1.52;;
76437;SDS011;65273;43.198;0.118;2023-04-24T02:18:46;4.38;;;1.70;;
76437;SDS011;65273;43.198;0.118;2023-04-24T02:21:11;5.65;;;1.70;;
76437;SDS011;65273;43.198;0.118;2023-04-24T02:23:37;2.50;;;1.63;;
76437;SDS011;65273;43.198;0.118;2023-04-24T02:26:02;3.92;;;1.67;;
76437;SDS011;65273;43.198;0.118;2023-04-24T02:28:28;2.63;;;1.45;;
76437;SDS011;65273;43.198;0.118;2023-04-24T02:30:53;5.57;;;1.77;;
76437;SDS011;65273;43.198;0.118;2023-04-24T02:33:18;1.73;;;1.30;;
76437;SDS011;65273;43.198;0.118;2023-04-24T02:35:44;2.60;;;1.50;;
76437;SDS011;65273;43.198;0.118;2023-04-24T02:38:10;3.70;;;1.58;;
76437;SDS011;65273;43.198;0.118;2023-04-24T02:40:35;5.47;;;1.60;;
76437;SDS011;65273;43.198;0.118;2023-04-24T02:43:01;3.97;;;1.50;;
76437;SDS011;65273;43.198;0.118;2023-04-24T02:45:26;4.38;;;1.63;;
76437;SDS011;65273;43.198;0.118;2023-04-24T02:47:52;4.28;;;1.90;;
76437;SDS011;65273;43.198;0.118;2023-04-24T02:50:17;4.38;;;1.50;;
76437;SDS011;65273;43.198;0.118;2023-04-24T02:52:42;4.20;;;1.77;;
76437;SDS011;65273;43.198;0.118;2023-04-24T02:55:08;6.47;;;1.83;;
76437;SDS011;65273;43.198;0.118;2023-04-24T02:57:33;4.43;;;1.67;;
76437;SDS011;65273;43.198;0.118;2023-04-24T02:59:59;1.92;;;1.42;;
76437;SDS011;65273;43.198;0.118;2023-04-24T03:02:25;7.47;;;1.50;;
76437;SDS011;65273;43.198;0.118;2023-04-24T03:04:50;5.82;;;1.60;;
76437;SDS011;65273;43.198;0.118;2023-04-24T03:07:16;5.25;;;1.60;;
76437;SDS011;65273;43.198;0.118;2023-04-24T03:09:41;6.30;;;1.67;;
76437;SDS011;65273;43.198;0.118;2023-04-24T03:12:07;8.32;;;1.60;;
76437;SDS011;65273;43.198;0.118;2023-04-24T03:14:32;3.22;;;1.50;;
76437;SDS011;65273;43.198;0.118;2023-04-24T03:16:58;5.18;;;1.90;;
76437;SDS011;65273;43.198;0.118;2023-04-24T03:19:23;7.68;;;2.10;;
76437;SDS011;65273;43.198;0.118;2023-04-24T03:21:49;5.32;;;2.08;;
76437;SDS011;65273;43.198;0.118;2023-04-24T03:24:15;5.88;;;2.20;;
76437;SDS011;65273;43.198;0.118;2023-04-24T03:26:40;4.22;;;2.10;;
76437;SDS011;65273;43.198;0.118;2023-04-24T03:29:06;5.30;;;2.22;;
76437;SDS011;65273;43.198;0.118;2023-04-24T03:31:31;7.07;;;2.30;;
76437;SDS011;65273;43.198;0.118;2023-04-24T03:33:56;8.27;;;3.15;;
76437;SDS011;65273;43.198;0.118;2023-04-24T03:36:22;8.68;;;2.95;;
76437;SDS011;65273;43.198;0.118;2023-04-24T03:38:47;5.40;;;2.80;;
76437;SDS011;65273;43.198;0.118;2023-04-24T03:41:13;13.18;;;2.75;;
76437;SDS011;65273;43.198;0.118;2023-04-24T03:43:38;8.52;;;2.80;;
76437;SDS011;65273;43.198;0.118;2023-04-24T03:46:04;9.90;;;2.85;;
76437;SDS011;65273;43.198;0.118;2023-04-24T03:48:30;7.30;;;2.88;;
76437;SDS011;65273;43.198;0.118;2023-04-24T03:50:55;9.63;;;3.17;;
76437;SDS011;65273;43.198;0.118;2023-04-24T03:53:20;8.80;;;3.28;;
76437;SDS011;65273;43.198;0.118;2023-04-24T03:55:46;7.78;;;3.28;;
76437;SDS011;65273;43.198;0.118;2023-04-24T03:58:12;9.43;;;3.97;;
76437;SDS011;65273;43.198;0.118;2023-04-24T04:00:39;9.15;;;3.38;;
76437;SDS011;65273;43.198;0.118;2023-04-24T04:03:05;8.18;;;3.25;;
76437;SDS011;65273;43.198;0.118;2023-04-24T04:05:31;7.95;;;3.08;;
76437;SDS011;65273;43.198;0.118;2023-04-24T04:07:56;10.05;;;3.67;;
76437;SDS011;65273;43.198;0.118;2023-04-24T04:10:22;9.57;;;3.45;;
76437;SDS011;65273;43.198;0.118;2023-04-24T04:12:47;11.20;;;3.45;;
76437;SDS011;65273;43.198;0.118;2023-04-24T04:15:13;10.40;;;3.10;;
76437;SDS011;65273;43.198;0.118;2023-04-24T04:17:38;10.50;;;3.88;;
76437;SDS011;65273;43.198;0.118;2023-04-24T04:20:04;8.27;;;2.83;;
76437;SDS011;65273;43.198;0.118;2023-04-24T04:22:34;5.40;;;2.58;;
76437;SDS011;65273;43.198;0.118;2023-04-24T04:24:59;11.55;;;3.05;;
76437;SDS011;65273;43.198;0.118;2023-04-24T04:27:25;9.20;;;2.78;;
76437;SDS011;65273;43.198;0.118;2023-04-24T04:29:51;8.50;;;2.88;;
76437;SDS011;65273;43.198;0.118;2023-04-24T04:32:17;12.95;;;3.25;;
76437;SDS011;65273;43.198;0.118;2023-04-24T04:34:43;12.77;;;4.18;;
76437;SDS011;65273;43.198;0.118;2023-04-24T04:37:10;8.93;;;2.58;;
76437;SDS011;65273;43.198;0.118;2023-04-24T04:39:37;8.05;;;2.85;;
76437;SDS011;65273;43.198;0.118;2023-04-24T04:42:03;6.63;;;2.78;;
76437;SDS011;65273;43.198;0.118;2023-04-24T04:44:28;6.22;;;2.30;;
76437;SDS011;65273;43.198;0.118;2023-04-24T04:46:55;8.60;;;2.53;;
76437;SDS011;65273;43.198;0.118;2023-04-24T04:49:21;13.60;;;2.65;;
76437;SDS011;65273;43.198;0.118;2023-04-24T04:51:48;8.30;;;2.05;;
76437;SDS011;65273;43.198;0.118;2023-04-24T04:54:15;14.52;;;2.80;;
76437;SDS011;65273;43.198;0.118;2023-04-24T04:56:41;6.07;;;2.25;;
76437;SDS011;65273;43.198;0.118;2023-04-24T04:59:06;10.68;;;2.70;;
76437;SDS011;65273;43.198;0.118;2023-04-24T05:01:32;8.90;;;2.80;;
76437;SDS011;65273;43.198;0.118;2023-04-24T05:03:57;5.85;;;3.00;;
76437;SDS011;65273;43.198;0.118;2023-04-24T05:06:23;8.60;;;3.38;;
76437;SDS011;65273;43.198;0.118;2023-04-24T05:08:48;11.93;;;3.50;;
76437;SDS011;65273;43.198;0.118;2023-04-24T05:11:14;10.43;;;3.20;;
76437;SDS011;65273;43.198;0.118;2023-04-24T05:13:40;11.05;;;3.10;;
76437;SDS011;65273;43.198;0.118;2023-04-24T05:16:05;9.88;;;4.00;;
76437;SDS011;65273;43.198;0.118;2023-04-24T05:18:31;9.40;;;3.47;;
76437;SDS011;65273;43.198;0.118;2023-04-24T05:20:56;10.52;;;3.55;;
76437;SDS011;65273;43.198;0.118;2023-04-24T05:23:22;4.68;;;2.30;;
76437;SDS011;65273;43.198;0.118;2023-04-24T05:25:47;5.65;;;2.10;;
76437;SDS011;65273;43.198;0.118;2023-04-24T05:28:13;5.85;;;2.10;;
76437;SDS011;65273;43.198;0.118;2023-04-24T05:30:38;7.13;;;2.55;;
76437;SDS011;65273;43.198;0.118;2023-04-24T05:33:04;6.43;;;2.50;;
76437;SDS011;65273;43.198;0.118;2023-04-24T05:35:29;7.68;;;2.35;;
76437;SDS011;65273;43.198;0.118;2023-04-24T05:37:54;7.00;;;2.15;;
76437;SDS011;65273;43.198;0.118;2023-04-24T05:40:20;6.50;;;2.80;;
76437;SDS011;65273;43.198;0.118;2023-04-24T05:42:45;7.10;;;2.45;;
76437;SDS011;65273;43.198;0.118;2023-04-24T05:45:11;5.53;;;2.40;;
76437;SDS011;65273;43.198;0.118;2023-04-24T05:47:41;10.43;;;2.67;;
76437;SDS011;65273;43.198;0.118;2023-04-24T05:50:07;3.53;;;1.80;;
76437;SDS011;65273;43.198;0.118;2023-04-24T05:52:32;3.30;;;1.50;;
76437;SDS011;65273;43.198;0.118;2023-04-24T05:54:58;6.45;;;1.60;;
76437;SDS011;65273;43.198;0.118;2023-04-24T05:57:23;3.05;;;1.67;;
76437;SDS011;65273;43.198;0.118;2023-04-24T05:59:49;8.27;;;1.65;;
76437;SDS011;65273;43.198;0.118;2023-04-24T06:02:15;5.45;;;1.45;;
76437;SDS011;65273;43.198;0.118;2023-04-24T06:04:40;3.85;;;1.30;;
76437;SDS011;65273;43.198;0.118;2023-04-24T06:07:06;5.72;;;1.75;;
76437;SDS011;65273;43.198;0.118;2023-04-24T06:09:32;3.88;;;1.50;;
76437;SDS011;65273;43.198;0.118;2023-04-24T06:11:57;5.10;;;1.55;;
76437;SDS011;65273;43.198;0.118;2023-04-24T06:14:24;3.47;;;1.48;;
76437;SDS011;65273;43.198;0.118;2023-04-24T06:16:50;6.60;;;1.70;;
76437;SDS011;65273;43.198;0.118;2023-04-24T06:19:15;3.20;;;1.20;;
76437;SDS011;65273;43.198;0.118;2023-04-24T06:21:41;3.17;;;1.42;;
76437;SDS011;65273;43.198;0.118;2023-04-24T06:24:06;4.20;;;1.50;;
76437;SDS011;65273;43.198;0.118;2023-04-24T06:26:32;2.05;;;1.10;;
76437;SDS011;65273;43.198;0.118;2023-04-24T06:28:57;2.17;;;0.90;;
76437;SDS011;65273;43.198;0.118;2023-04-24T06:31:24;3.25;;;1.13;;
76437;SDS011;65273;43.198;0.118;2023-04-24T06:33:49;4.68;;;1.40;;
76437;SDS011;65273;43.198;0.118;2023-04-24T06:36:15;7.85;;;1.48;;
76437;SDS011;65273;43.198;0.118;2023-04-24T06:38:41;4.18;;;1.80;;
76437;SDS011;65273;43.198;0.118;2023-04-24T06:41:06;2.83;;;1.35;;
76437;SDS011;65273;43.198;0.118;2023-04-24T06:43:32;4.72;;;1.30;;
76437;SDS011;65273;43.198;0.118;2023-04-24T06:45:58;3.10;;;1.17;;
76437;SDS011;65273;43.198;0.118;2023-04-24T06:48:24;2.13;;;1.40;;
76437;SDS011;65273;43.198;0.118;2023-04-24T06:50:50;1.38;;;1.00;;
76437;SDS011;65273;43.198;0.118;2023-04-24T06:53:16;1.50;;;0.93;;
76437;SDS011;65273;43.198;0.118;2023-04-24T06:55:42;3.40;;;1.02;;
76437;SDS011;65273;43.198;0.118;2023-04-24T06:58:08;3.00;;;0.90;;
76437;SDS011;65273;43.198;0.118;2023-04-24T07:00:34;2.83;;;0.73;;
76437;SDS011;65273;43.198;0.118;2023-04-24T07:02:59;4.13;;;1.15;;
76437;SDS011;65273;43.198;0.118;2023-04-24T07:05:25;2.22;;;0.70;;
76437;SDS011;65273;43.198;0.118;2023-04-24T07:07:50;2.17;;;0.85;;
76437;SDS011;65273;43.198;0.118;2023-04-24T07:10:16;0.77;;;0.60;;
76437;SDS011;65273;43.198;0.118;2023-04-24T07:12:42;1.80;;;0.52;;
76437;SDS011;65273;43.198;0.118;2023-04-24T07:15:07;3.65;;;0.52;;
76437;SDS011;65273;43.198;0.118;2023-04-24T07:17:34;2.40;;;0.70;;
76437;SDS011;65273;43.198;0.118;2023-04-24T07:20:00;2.00;;;0.80;;
76437;SDS011;65273;43.198;0.118;2023-04-24T07:22:25;2.90;;;0.82;;
76437;SDS011;65273;43.198;0.118;2023-04-24T07:24:51;2.72;;;0.57;;
76437;SDS011;65273;43.198;0.118;2023-04-24T07:27:17;2.45;;;0.90;;
76437;SDS011;65273;43.198;0.118;2023-04-24T07:29:42;1.60;;;0.65;;
76437;SDS011;65273;43.198;0.118;2023-04-24T07:32:08;3.63;;;0.77;;
76437;SDS011;65273;43.198;0.118;2023-04-24T07:34:34;3.20;;;0.80;;
76437;SDS011;65273;43.198;0.118;2023-04-24T07:36:59;1.38;;;0.60;;
76437;SDS011;65273;43.198;0.118;2023-04-24T07:39:28;6.05;;;1.17;;
76437;SDS011;65273;43.198;0.118;2023-04-24T07:41:54;3.28;;;0.70;;
76437;SDS011;65273;43.198;0.118;2023-04-24T07:44:20;0.90;;;0.63;;
76437;SDS011;65273;43.198;0.118;2023-04-24T07:46:46;3.03;;;1.05;;
76437;SDS011;65273;43.198;0.118;2023-04-24T07:49:12;2.88;;;0.90;;
76437;SDS011;65273;43.198;0.118;2023-04-24T07:51:37;5.68;;;0.82;;
76437;SDS011;65273;43.198;0.118;2023-04-24T07:54:05;3.03;;;0.70;;
76437;SDS011;65273;43.198;0.118;2023-04-24T07:56:31;9.02;;;0.70;;
76437;SDS011;65273;43.198;0.118;2023-04-24T07:58:58;2.25;;;0.68;;
76437;SDS011;65273;43.198;0.118;2023-04-24T08:01:23;1.98;;;0.60;;
76437;SDS011;65273;43.198;0.118;2023-04-24T08:03:50;2.33;;;0.70;;
76437;SDS011;65273;43.198;0.118;2023-04-24T08:06:16;3.22;;;0.63;;
76437;SDS011;65273;43.198;0.118;2023-04-24T08:08:41;3.45;;;0.47;;
76437;SDS011;65273;43.198;0.118;2023-04-24T08:11:07;1.98;;;0.70;;
76437;SDS011;65273;43.198;0.118;2023-04-24T08:13:32;1.27;;;0.63;;
76437;SDS011;65273;43.198;0.118;2023-04-24T08:15:58;3.08;;;0.70;;
76437;SDS011;65273;43.198;0.118;2023-04-24T08:18:23;3.03;;;0.70;;
76437;SDS011;65273;43.198;0.118;2023-04-24T08:20:49;3.28;;;0.47;;
76437;SDS011;65273;43.198;0.118;2023-04-24T08:23:14;2.53;;;0.50;;
76437;SDS011;65273;43.198;0.118;2023-04-24T08:25:39;2.05;;;0.60;;
76437;SDS011;65273;43.198;0.118;2023-04-24T08:28:05;1.35;;;0.57;;
76437;SDS011;65273;43.198;0.118;2023-04-24T08:30:31;1.80;;;0.60;;
76437;SDS011;65273;43.198;0.118;2023-04-24T08:32:57;2.15;;;0.70;;
76437;SDS011;65273;43.198;0.118;2023-04-24T08:35:23;2.47;;;0.70;;
76437;SDS011;65273;43.198;0.118;2023-04-24T08:37:48;1.27;;;0.63;;
76437;SDS011;65273;43.198;0.118;2023-04-24T08:40:14;1.23;;;0.50;;
76437;SDS011;65273;43.198;0.118;2023-04-24T08:42:44;1.88;;;0.50;;
76437;SDS011;65273;43.198;0.118;2023-04-24T08:45:10;2.03;;;0.57;;
76437;SDS011;65273;43.198;0.118;2023-04-24T08:47:37;3.13;;;0.40;;
76437;SDS011;65273;43.198;0.118;2023-04-24T08:50:03;2.15;;;0.40;;
76437;SDS011;65273;43.198;0.118;2023-04-24T08:52:31;2.03;;;0.35;;
76437;SDS011;65273;43.198;0.118;2023-04-24T08:54:57;1.00;;;0.43;;
76437;SDS011;65273;43.198;0.118;2023-04-24T08:57:23;0.88;;;0.30;;
76437;SDS011;65273;43.198;0.118;2023-04-24T08:59:49;2.67;;;0.40;;
76437;SDS011;65273;43.198;0.118;2023-04-24T09:02:15;2.13;;;0.52;;
76437;SDS011;65273;43.198;0.118;2023-04-24T09:04:41;2.38;;;0.50;;
76437;SDS011;65273;43.198;0.118;2023-04-24T09:07:08;1.52;;;0.40;;
76437;SDS011;65273;43.198;0.118;2023-04-24T09:09:35;1.00;;;0.50;;
76437;SDS011;65273;43.198;0.118;2023-04-24T09:12:01;0.95;;;0.47;;
76437;SDS011;65273;43.198;0.118;2023-04-24T09:14:27;2.33;;;0.80;;
76437;SDS011;65273;43.198;0.118;2023-04-24T09:16:53;1.90;;;0.50;;
76437;SDS011;65273;43.198;0.118;2023-04-24T09:19:18;1.30;;;0.57;;
76437;SDS011;65273;43.198;0.118;2023-04-24T09:21:45;2.22;;;0.40;;
76437;SDS011;65273;43.198;0.118;2023-04-24T09:24:17;2.00;;;0.50;;
76437;SDS011;65273;43.198;0.118;2023-04-24T09:26:47;3.08;;;0.50;;
76437;SDS011;65273;43.198;0.118;2023-04-24T09:29:16;2.80;;;0.60;;
76437;SDS011;65273;43.198;0.118;2023-04-24T09:31:41;1.08;;;0.30;;
76437;SDS011;65273;43.198;0.118;2023-04-24T09:34:07;2.17;;;0.60;;
76437;SDS011;65273;43.198;0.118;2023-04-24T09:36:36;1.80;;;0.40;;
76437;SDS011;65273;43.198;0.118;2023-04-24T09:39:06;1.45;;;0.50;;
76437;SDS011;65273;43.198;0.118;2023-04-24T09:44:15;1.17;;;0.43;;
76437;SDS011;65273;43.198;0.118;2023-04-24T09:46:41;1.50;;;0.40;;
76437;SDS011;65273;43.198;0.118;2023-04-24T09:49:07;1.83;;;0.38;;
76437;SDS011;65273;43.198;0.118;2023-04-24T09:51:34;1.35;;;0.45;;
76437;SDS011;65273;43.198;0.118;2023-04-24T09:54:01;1.42;;;0.52;;
76437;SDS011;65273;43.198;0.118;2023-04-24T09:56:26;1.20;;;0.47;;
76437;SDS011;65273;43.198;0.118;2023-04-24T09:58:52;1.73;;;0.50;;
76437;SDS011;65273;43.198;0.118;2023-04-24T10:01:29;3.47;;;0.50;;
76437;SDS011;65273;43.198;0.118;2023-04-24T10:03:54;2.08;;;0.60;;
76437;SDS011;65273;43.198;0.118;2023-04-24T10:06:20;2.33;;;0.50;;
76437;SDS011;65273;43.198;0.118;2023-04-24T10:08:45;2.13;;;0.60;;
76437;SDS011;65273;43.198;0.118;2023-04-24T10:11:11;0.85;;;0.52;;
76437;SDS011;65273;43.198;0.118;2023-04-24T10:13:36;1.98;;;0.47;;
76437;SDS011;65273;43.198;0.118;2023-04-24T10:16:02;1.25;;;0.40;;
76437;SDS011;65273;43.198;0.118;2023-04-24T10:18:28;0.70;;;0.43;;
76437;SDS011;65273;43.198;0.118;2023-04-24T10:20:54;1.13;;;0.50;;
76437;SDS011;65273;43.198;0.118;2023-04-24T10:23:21;2.30;;;0.50;;
76437;SDS011;65273;43.198;0.118;2023-04-24T10:25:46;1.10;;;0.43;;
76437;SDS011;65273;43.198;0.118;2023-04-24T10:28:12;3.75;;;0.88;;
76437;SDS011;65273;43.198;0.118;2023-04-24T10:30:38;0.73;;;0.35;;
76437;SDS011;65273;43.198;0.118;2023-04-24T10:33:04;1.10;;;0.77;;
76437;SDS011;65273;43.198;0.118;2023-04-24T10:35:41;1.20;;;0.45;;
76437;SDS011;65273;43.198;0.118;2023-04-24T10:38:14;1.63;;;0.50;;
76437;SDS011;65273;43.198;0.118;2023-04-24T10:40:41;1.05;;;0.70;;
76437;SDS011;65273;43.198;0.118;2023-04-24T10:43:07;1.73;;;0.52;;
76437;SDS011;65273;43.198;0.118;2023-04-24T10:45:34;1.50;;;0.40;;
76437;SDS011;65273;43.198;0.118;2023-04-24T10:48:04;2.67;;;0.60;;
76437;SDS011;65273;43.198;0.118;2023-04-24T10:53:12;1.10;;;0.50;;
76437;SDS011;65273;43.198;0.118;2023-04-24T10:58:08;2.50;;;0.60;;
76437;SDS011;65273;43.198;0.118;2023-04-24T11:00:36;2.47;;;0.50;;
76437;SDS011;65273;43.198;0.118;2023-04-24T11:03:01;1.00;;;0.40;;
76437;SDS011;65273;43.198;0.118;2023-04-24T11:08:13;4.05;;;0.60;;
76437;SDS011;65273;43.198;0.118;2023-04-24T11:10:45;2.05;;;0.50;;
76437;SDS011;65273;43.198;0.118;2023-04-24T11:13:15;1.48;;;0.40;;
76437;SDS011;65273;43.198;0.118;2023-04-24T11:15:41;1.23;;;0.57;;
76437;SDS011;65273;43.198;0.118;2023-04-24T11:18:12;1.00;;;0.50;;
76437;SDS011;65273;43.198;0.118;2023-04-24T11:20:38;1.08;;;0.52;;
76437;SDS011;65273;43.198;0.118;2023-04-24T11:23:07;1.52;;;0.75;;
76437;SDS011;65273;43.198;0.118;2023-04-24T11:25:33;0.98;;;0.50;;
76437;SDS011;65273;43.198;0.118;2023-04-24T11:28:03;4.72;;;0.60;;
76437;SDS011;65273;43.198;0.118;2023-04-24T11:30:29;1.73;;;0.45;;
76437;SDS011;65273;43.198;0.118;2023-04-24T11:32:55;1.52;;;0.52;;
76437;SDS011;65273;43.198;0.118;2023-04-24T11:35:26;1.27;;;0.57;;
76437;SDS011;65273;43.198;0.118;2023-04-24T11:38:02;2.03;;;0.50;;
76437;SDS011;65273;43.198;0.118;2023-04-24T11:40:29;3.67;;;0.50;;
76437;SDS011;65273;43.198;0.118;2023-04-24T11:42:54;1.48;;;0.40;;
76437;SDS011;65273;43.198;0.118;2023-04-24T11:45:24;1.40;;;0.50;;
76437;SDS011;65273;43.198;0.118;2023-04-24T11:47:50;1.88;;;0.57;;
76437;SDS011;65273;43.198;0.118;2023-04-24T11:50:16;3.42;;;0.65;;
76437;SDS011;65273;43.198;0.118;2023-04-24T11:52:43;2.13;;;0.70;;
76437;SDS011;65273;43.198;0.118;2023-04-24T11:55:29;2.53;;;0.57;;
76437;SDS011;65273;43.198;0.118;2023-04-24T11:57:57;7.72;;;0.90;;
76437;SDS011;65273;43.198;0.118;2023-04-24T12:00:24;1.92;;;0.50;;
76437;SDS011;65273;43.198;0.118;2023-04-24T12:02:50;1.15;;;0.40;;
76437;SDS011;65273;43.198;0.118;2023-04-24T12:05:26;0.45;;;0.30;;
76437;SDS011;65273;43.198;0.118;2023-04-24T12:07:51;0.98;;;0.38;;
76437;SDS011;65273;43.198;0.118;2023-04-24T12:10:20;0.80;;;0.43;;
76437;SDS011;65273;43.198;0.118;2023-04-24T12:12:45;3.08;;;0.50;;
76437;SDS011;65273;43.198;0.118;2023-04-24T12:15:11;1.00;;;0.50;;
76437;SDS011;65273;43.198;0.118;2023-04-24T12:17:40;2.25;;;0.50;;
76437;SDS011;65273;43.198;0.118;2023-04-24T12:20:07;2.92;;;0.70;;
76437;SDS011;65273;43.198;0.118;2023-04-24T12:25:19;0.98;;;0.55;;
76437;SDS011;65273;43.198;0.118;2023-04-24T12:27:45;4.50;;;0.82;;
76437;SDS011;65273;43.198;0.118;2023-04-24T12:30:15;10.07;;;0.70;;
76437;SDS011;65273;43.198;0.118;2023-04-24T12:32:47;8.00;;;0.90;;
76437;SDS011;65273;43.198;0.118;2023-04-24T12:35:20;1.85;;;0.57;;
76437;SDS011;65273;43.198;0.118;2023-04-24T12:37:46;6.43;;;0.70;;
76437;SDS011;65273;43.198;0.118;2023-04-24T12:40:12;7.32;;;0.73;;
76437;SDS011;65273;43.198;0.118;2023-04-24T12:42:42;3.15;;;0.60;;
76437;SDS011;65273;43.198;0.118;2023-04-24T12:45:09;2.55;;;0.50;;
76437;SDS011;65273;43.198;0.118;2023-04-24T12:47:37;3.88;;;0.63;;
76437;SDS011;65273;43.198;0.118;2023-04-24T12:50:03;2.47;;;0.50;;
76437;SDS011;65273;43.198;0.118;2023-04-24T12:52:29;2.38;;;0.40;;
76437;SDS011;65273;43.198;0.118;2023-04-24T12:54:56;11.15;;;0.70;;
76437;SDS011;65273;43.198;0.118;2023-04-24T12:57:25;4.90;;;0.68;;
76437;SDS011;65273;43.198;0.118;2023-04-24T12:59:54;29.90;;;1.38;;
76437;SDS011;65273;43.198;0.118;2023-04-24T13:02:21;3.42;;;0.60;;
76437;SDS011;65273;43.198;0.118;2023-04-24T13:04:50;8.80;;;0.90;;
76437;SDS011;65273;43.198;0.118;2023-04-24T13:07:16;3.10;;;0.63;;
76437;SDS011;65273;43.198;0.118;2023-04-24T13:09:42;5.35;;;1.02;;
76437;SDS011;65273;43.198;0.118;2023-04-24T13:12:08;19.17;;;1.83;;
76437;SDS011;65273;43.198;0.118;2023-04-24T13:14:34;30.20;;;1.88;;
76437;SDS011;65273;43.198;0.118;2023-04-24T13:17:00;35.55;;;2.42;;
76437;SDS011;65273;43.198;0.118;2023-04-24T13:19:26;6.65;;;1.00;;
76437;SDS011;65273;43.198;0.118;2023-04-24T13:21:51;6.78;;;0.95;;
76437;SDS011;65273;43.198;0.118;2023-04-24T13:24:17;2.22;;;0.50;;
76437;SDS011;65273;43.198;0.118;2023-04-24T13:26:43;27.20;;;1.92;;
76437;SDS011;65273;43.198;0.118;2023-04-24T13:29:08;26.35;;;2.47;;
76437;SDS011;65273;43.198;0.118;2023-04-24T13:31:34;12.82;;;2.03;;
76437;SDS011;65273;43.198;0.118;2023-04-24T13:34:02;19.95;;;1.63;;
76437;SDS011;65273;43.198;0.118;2023-04-24T13:36:27;13.55;;;1.10;;
76437;SDS011;65273;43.198;0.118;2023-04-24T13:38:53;1.40;;;0.55;;
76437;SDS011;65273;43.198;0.118;2023-04-24T13:41:19;3.72;;;0.93;;
76437;SDS011;65273;43.198;0.118;2023-04-24T13:43:45;2.75;;;0.60;;
76437;SDS011;65273;43.198;0.118;2023-04-24T13:46:10;0.65;;;0.45;;
76437;SDS011;65273;43.198;0.118;2023-04-24T13:48:36;2.42;;;0.75;;
76437;SDS011;65273;43.198;0.118;2023-04-24T13:51:02;6.60;;;1.00;;
76437;SDS011;65273;43.198;0.118;2023-04-24T13:53:28;2.38;;;0.60;;
76437;SDS011;65273;43.198;0.118;2023-04-24T13:55:54;2.05;;;0.70;;
76437;SDS011;65273;43.198;0.118;2023-04-24T13:58:19;4.43;;;0.60;;
76437;SDS011;65273;43.198;0.118;2023-04-24T14:00:46;1.92;;;0.80;;
76437;SDS011;65273;43.198;0.118;2023-04-24T14:03:13;2.00;;;0.90;;
76437;SDS011;65273;43.198;0.118;2023-04-24T14:05:38;2.20;;;0.80;;
76437;SDS011;65273;43.198;0.118;2023-04-24T14:08:04;3.90;;;0.80;;
76437;SDS011;65273;43.198;0.118;2023-04-24T14:10:31;1.50;;;0.57;;
76437;SDS011;65273;43.198;0.118;2023-04-24T14:12:57;2.50;;;0.70;;
76437;SDS011;65273;43.198;0.118;2023-04-24T14:15:22;2.25;;;0.80;;
76437;SDS011;65273;43.198;0.118;2023-04-24T14:17:48;3.47;;;1.08;;
76437;SDS011;65273;43.198;0.118;2023-04-24T14:20:15;3.22;;;1.08;;
76437;SDS011;65273;43.198;0.118;2023-04-24T14:22:41;4.32;;;0.85;;
76437;SDS011;65273;43.198;0.118;2023-04-24T14:25:06;4.10;;;0.80;;
76437;SDS011;65273;43.198;0.118;2023-04-24T14:27:32;3.17;;;0.77;;
76437;SDS011;65273;43.198;0.118;2023-04-24T14:29:59;3.70;;;1.00;;
76437;SDS011;65273;43.198;0.118;2023-04-24T14:32:25;2.05;;;0.80;;
76437;SDS011;65273;43.198;0.118;2023-04-24T14:34:51;2.33;;;0.80;;
76437;SDS011;65273;43.198;0.118;2023-04-24T14:37:16;2.95;;;1.20;;
76437;SDS011;65273;43.198;0.118;2023-04-24T14:39:42;4.00;;;0.90;;
76437;SDS011;65273;43.198;0.118;2023-04-24T14:42:07;4.18;;;0.80;;
76437;SDS011;65273;43.198;0.118;2023-04-24T14:44:33;4.43;;;0.93;;
76437;SDS011;65273;43.198;0.118;2023-04-24T14:46:59;3.47;;;1.02;;
76437;SDS011;65273;43.198;0.118;2023-04-24T14:49:25;3.38;;;0.80;;
76437;SDS011;65273;43.198;0.118;2023-04-24T14:51:50;5.80;;;0.77;;